
<gpx xmlns="http://www.topografix.com/GPX/1/1" xmlns:gpxx="http://www.garmin.com/xmlschemas/GpxExtensions/v3" xmlns:xsi="http://www.w3.org/2001/XMLSchema-instance" version="1.1" creator="Adze - http://kobotsw.com/apps/adze" xsi:schemaLocation="http://www.topografix.com/GPX/1/1 http://www.topografix.com/GPX/1/1/gpx.xsd http://www.garmin.com/xmlschemas/GpxExtensions/v3 http://www.garmin.com/xmlschemas/GpxExtensionsv3.xsd">
    <metadata>
        <name>Untitled Document</name>
        <link href="http://www.garmin.com"></link>
        <time>2018-02-04T08:24:53.323Z</time>
    </metadata>
    <wpt lon="101.473965" lat="14.554771">
        <ele>364.000000</ele>
        <time>2016-09-24T05:41:39Z</time>
        <name>Khaoyai Kirithantip Resort</name>
        <sym>Lodging</sym>
        <extensions>
            <gpxx:WaypointExtension xmlns:gpxx="http://www.garmin.com/xmlschemas/GpxExtensions/v3">
                <gpxx:DisplayMode>SymbolOnly</gpxx:DisplayMode>
            </gpxx:WaypointExtension>
        </extensions>
    </wpt>
    <wpt lon="101.480940" lat="14.596480">
        <ele>343.000000</ele>
        <time>2016-09-24T11:53:04Z</time>
        <name>Water Saturday</name>
        <sym>Drinking Water</sym>
        <extensions>
            <gpxx:WaypointExtension xmlns:gpxx="http://www.garmin.com/xmlschemas/GpxExtensions/v3">
                <gpxx:DisplayMode>SymbolOnly</gpxx:DisplayMode>
            </gpxx:WaypointExtension>
        </extensions>
    </wpt>
    <trk>
        <name>Saturday</name>
        <extensions>
            <gpxx:TrackExtension xmlns:gpxx="http://www.garmin.com/xmlschemas/GpxExtensions/v3">
                <gpxx:DisplayColor>Red</gpxx:DisplayColor>
            </gpxx:TrackExtension>
        </extensions>
        <trkseg>
            <trkpt lon="101.473996" lat="14.554742">
                <ele>350.540000</ele>
                <time>2016-09-24T06:05:40Z</time>
            </trkpt>
            <trkpt lon="101.473974" lat="14.554750">
                <ele>355.830000</ele>
                <time>2016-09-24T06:05:42Z</time>
            </trkpt>
            <trkpt lon="101.473947" lat="14.554648">
                <ele>357.270000</ele>
                <time>2016-09-24T06:05:50Z</time>
            </trkpt>
            <trkpt lon="101.474106" lat="14.554697">
                <ele>357.270000</ele>
                <time>2016-09-24T06:05:58Z</time>
            </trkpt>
            <trkpt lon="101.474262" lat="14.555301">
                <ele>357.270000</ele>
                <time>2016-09-24T06:06:14Z</time>
            </trkpt>
            <trkpt lon="101.474339" lat="14.555698">
                <ele>356.310000</ele>
                <time>2016-09-24T06:06:26Z</time>
            </trkpt>
            <trkpt lon="101.474212" lat="14.555747">
                <ele>356.310000</ele>
                <time>2016-09-24T06:06:30Z</time>
            </trkpt>
            <trkpt lon="101.471633" lat="14.556075">
                <ele>358.230000</ele>
                <time>2016-09-24T06:07:30Z</time>
            </trkpt>
            <trkpt lon="101.470815" lat="14.556073">
                <ele>358.710000</ele>
                <time>2016-09-24T06:07:49Z</time>
            </trkpt>
            <trkpt lon="101.466557" lat="14.557174">
                <ele>368.800000</ele>
                <time>2016-09-24T06:09:45Z</time>
            </trkpt>
            <trkpt lon="101.465045" lat="14.557171">
                <ele>373.610000</ele>
                <time>2016-09-24T06:10:33Z</time>
            </trkpt>
            <trkpt lon="101.464522" lat="14.557181">
                <ele>374.090000</ele>
                <time>2016-09-24T06:10:50Z</time>
            </trkpt>
            <trkpt lon="101.464383" lat="14.558182">
                <ele>382.740000</ele>
                <time>2016-09-24T06:11:33Z</time>
            </trkpt>
            <trkpt lon="101.464208" lat="14.559312">
                <ele>388.030000</ele>
                <time>2016-09-24T06:12:36Z</time>
            </trkpt>
            <trkpt lon="101.464002" lat="14.560116">
                <ele>394.280000</ele>
                <time>2016-09-24T06:13:31Z</time>
            </trkpt>
            <trkpt lon="101.464498" lat="14.560744">
                <ele>398.600000</ele>
                <time>2016-09-24T06:14:16Z</time>
            </trkpt>
            <trkpt lon="101.463942" lat="14.561523">
                <ele>420.710000</ele>
                <time>2016-09-24T06:16:32Z</time>
            </trkpt>
            <trkpt lon="101.463629" lat="14.562292">
                <ele>441.380000</ele>
                <time>2016-09-24T06:18:13Z</time>
            </trkpt>
            <trkpt lon="101.463495" lat="14.563017">
                <ele>458.210000</ele>
                <time>2016-09-24T06:19:32Z</time>
            </trkpt>
            <trkpt lon="101.463931" lat="14.563870">
                <ele>465.900000</ele>
                <time>2016-09-24T06:20:45Z</time>
            </trkpt>
            <trkpt lon="101.464219" lat="14.564031">
                <ele>459.650000</ele>
                <time>2016-09-24T06:21:00Z</time>
            </trkpt>
            <trkpt lon="101.464340" lat="14.564254">
                <ele>455.800000</ele>
                <time>2016-09-24T06:21:11Z</time>
            </trkpt>
            <trkpt lon="101.464845" lat="14.565530">
                <ele>464.930000</ele>
                <time>2016-09-24T06:22:27Z</time>
            </trkpt>
            <trkpt lon="101.465018" lat="14.565744">
                <ele>469.260000</ele>
                <time>2016-09-24T06:22:39Z</time>
            </trkpt>
            <trkpt lon="101.465736" lat="14.566433">
                <ele>474.550000</ele>
                <time>2016-09-24T06:23:21Z</time>
            </trkpt>
            <trkpt lon="101.467145" lat="14.567425">
                <ele>459.170000</ele>
                <time>2016-09-24T06:24:25Z</time>
            </trkpt>
            <trkpt lon="101.467318" lat="14.567656">
                <ele>453.880000</ele>
                <time>2016-09-24T06:24:37Z</time>
            </trkpt>
            <trkpt lon="101.467321" lat="14.568078">
                <ele>446.190000</ele>
                <time>2016-09-24T06:24:50Z</time>
            </trkpt>
            <trkpt lon="101.467106" lat="14.568751">
                <ele>436.100000</ele>
                <time>2016-09-24T06:25:13Z</time>
            </trkpt>
            <trkpt lon="101.466222" lat="14.570393">
                <ele>447.150000</ele>
                <time>2016-09-24T06:26:45Z</time>
            </trkpt>
            <trkpt lon="101.465746" lat="14.571312">
                <ele>440.420000</ele>
                <time>2016-09-24T06:27:25Z</time>
            </trkpt>
            <trkpt lon="101.465415" lat="14.572537">
                <ele>435.130000</ele>
                <time>2016-09-24T06:40:34Z</time>
            </trkpt>
            <trkpt lon="101.465152" lat="14.573043">
                <ele>428.890000</ele>
                <time>2016-09-24T06:41:01Z</time>
            </trkpt>
            <trkpt lon="101.464893" lat="14.573262">
                <ele>428.400000</ele>
                <time>2016-09-24T06:41:14Z</time>
            </trkpt>
            <trkpt lon="101.464338" lat="14.573264">
                <ele>424.560000</ele>
                <time>2016-09-24T06:41:55Z</time>
            </trkpt>
            <trkpt lon="101.464042" lat="14.573325">
                <ele>418.790000</ele>
                <time>2016-09-24T06:42:19Z</time>
            </trkpt>
            <trkpt lon="101.463522" lat="14.573432">
                <ele>409.180000</ele>
                <time>2016-09-24T06:43:06Z</time>
            </trkpt>
            <trkpt lon="101.463131" lat="14.573358">
                <ele>408.220000</ele>
                <time>2016-09-24T06:43:33Z</time>
            </trkpt>
            <trkpt lon="101.463000" lat="14.573456">
                <ele>406.290000</ele>
                <time>2016-09-24T06:43:51Z</time>
            </trkpt>
            <trkpt lon="101.462408" lat="14.573350">
                <ele>407.260000</ele>
                <time>2016-09-24T06:44:30Z</time>
            </trkpt>
            <trkpt lon="101.461786" lat="14.573131">
                <ele>400.050000</ele>
                <time>2016-09-24T06:45:08Z</time>
            </trkpt>
            <trkpt lon="101.461088" lat="14.572929">
                <ele>402.450000</ele>
                <time>2016-09-24T06:45:51Z</time>
            </trkpt>
            <trkpt lon="101.460959" lat="14.572832">
                <ele>410.620000</ele>
                <time>2016-09-24T06:46:10Z</time>
            </trkpt>
            <trkpt lon="101.460860" lat="14.572681">
                <ele>414.950000</ele>
                <time>2016-09-24T06:46:27Z</time>
            </trkpt>
            <trkpt lon="101.460343" lat="14.572453">
                <ele>418.790000</ele>
                <time>2016-09-24T06:47:28Z</time>
            </trkpt>
            <trkpt lon="101.459961" lat="14.572068">
                <ele>421.190000</ele>
                <time>2016-09-24T06:48:55Z</time>
            </trkpt>
            <trkpt lon="101.459646" lat="14.571683">
                <ele>413.980000</ele>
                <time>2016-09-24T06:49:20Z</time>
            </trkpt>
            <trkpt lon="101.458481" lat="14.571164">
                <ele>416.870000</ele>
                <time>2016-09-24T06:50:44Z</time>
            </trkpt>
            <trkpt lon="101.457711" lat="14.570863">
                <ele>409.180000</ele>
                <time>2016-09-24T06:51:26Z</time>
            </trkpt>
            <trkpt lon="101.457502" lat="14.570595">
                <ele>407.260000</ele>
                <time>2016-09-24T06:51:39Z</time>
            </trkpt>
            <trkpt lon="101.457319" lat="14.570354">
                <ele>402.450000</ele>
                <time>2016-09-24T06:51:53Z</time>
            </trkpt>
            <trkpt lon="101.456586" lat="14.569995">
                <ele>394.280000</ele>
                <time>2016-09-24T06:52:27Z</time>
            </trkpt>
            <trkpt lon="101.456273" lat="14.569419">
                <ele>386.590000</ele>
                <time>2016-09-24T06:52:50Z</time>
            </trkpt>
            <trkpt lon="101.455734" lat="14.568861">
                <ele>382.740000</ele>
                <time>2016-09-24T06:53:18Z</time>
            </trkpt>
            <trkpt lon="101.455223" lat="14.568065">
                <ele>377.940000</ele>
                <time>2016-09-24T06:53:58Z</time>
            </trkpt>
            <trkpt lon="101.455227" lat="14.567976">
                <ele>376.970000</ele>
                <time>2016-09-24T06:54:02Z</time>
            </trkpt>
            <trkpt lon="101.455238" lat="14.567693">
                <ele>377.940000</ele>
                <time>2016-09-24T06:54:24Z</time>
            </trkpt>
            <trkpt lon="101.455249" lat="14.567604">
                <ele>376.970000</ele>
                <time>2016-09-24T06:54:39Z</time>
            </trkpt>
            <trkpt lon="101.454485" lat="14.566053">
                <ele>390.430000</ele>
                <time>2016-09-24T06:57:30Z</time>
            </trkpt>
            <trkpt lon="101.454120" lat="14.565619">
                <ele>392.360000</ele>
                <time>2016-09-24T06:58:04Z</time>
            </trkpt>
            <trkpt lon="101.453322" lat="14.565587">
                <ele>389.950000</ele>
                <time>2016-09-24T06:58:32Z</time>
            </trkpt>
            <trkpt lon="101.452799" lat="14.565581">
                <ele>388.510000</ele>
                <time>2016-09-24T06:58:46Z</time>
            </trkpt>
            <trkpt lon="101.452475" lat="14.565742">
                <ele>388.030000</ele>
                <time>2016-09-24T06:58:56Z</time>
            </trkpt>
            <trkpt lon="101.451924" lat="14.566111">
                <ele>384.660000</ele>
                <time>2016-09-24T06:59:11Z</time>
            </trkpt>
            <trkpt lon="101.451428" lat="14.566617">
                <ele>380.820000</ele>
                <time>2016-09-24T06:59:28Z</time>
            </trkpt>
            <trkpt lon="101.451162" lat="14.566688">
                <ele>378.900000</ele>
                <time>2016-09-24T06:59:38Z</time>
            </trkpt>
            <trkpt lon="101.450349" lat="14.566693">
                <ele>375.530000</ele>
                <time>2016-09-24T06:59:55Z</time>
            </trkpt>
            <trkpt lon="101.449628" lat="14.567033">
                <ele>372.650000</ele>
                <time>2016-09-24T07:00:12Z</time>
            </trkpt>
            <trkpt lon="101.449365" lat="14.567232">
                <ele>370.240000</ele>
                <time>2016-09-24T07:00:22Z</time>
            </trkpt>
            <trkpt lon="101.449825" lat="14.567734">
                <ele>372.170000</ele>
                <time>2016-09-24T07:00:42Z</time>
            </trkpt>
            <trkpt lon="101.450095" lat="14.568296">
                <ele>373.610000</ele>
                <time>2016-09-24T07:00:58Z</time>
            </trkpt>
            <trkpt lon="101.450247" lat="14.568696">
                <ele>373.130000</ele>
                <time>2016-09-24T07:01:08Z</time>
            </trkpt>
            <trkpt lon="101.450566" lat="14.569457">
                <ele>368.800000</ele>
                <time>2016-09-24T07:01:24Z</time>
            </trkpt>
            <trkpt lon="101.450799" lat="14.570070">
                <ele>368.800000</ele>
                <time>2016-09-24T07:01:38Z</time>
            </trkpt>
            <trkpt lon="101.450913" lat="14.571605">
                <ele>369.280000</ele>
                <time>2016-09-24T07:02:10Z</time>
            </trkpt>
            <trkpt lon="101.451401" lat="14.574023">
                <ele>364.480000</ele>
                <time>2016-09-24T07:02:59Z</time>
            </trkpt>
            <trkpt lon="101.451809" lat="14.574915">
                <ele>364.000000</ele>
                <time>2016-09-24T07:03:19Z</time>
            </trkpt>
            <trkpt lon="101.452282" lat="14.575755">
                <ele>359.670000</ele>
                <time>2016-09-24T07:03:36Z</time>
            </trkpt>
            <trkpt lon="101.453420" lat="14.576880">
                <ele>355.830000</ele>
                <time>2016-09-24T07:04:04Z</time>
            </trkpt>
            <trkpt lon="101.453913" lat="14.577516">
                <ele>356.790000</ele>
                <time>2016-09-24T07:04:21Z</time>
            </trkpt>
            <trkpt lon="101.454545" lat="14.580317">
                <ele>356.790000</ele>
                <time>2016-09-24T07:05:24Z</time>
            </trkpt>
            <trkpt lon="101.454708" lat="14.580694">
                <ele>356.310000</ele>
                <time>2016-09-24T07:05:33Z</time>
            </trkpt>
            <trkpt lon="101.454742" lat="14.580767">
                <ele>355.830000</ele>
                <time>2016-09-24T07:05:35Z</time>
            </trkpt>
            <trkpt lon="101.455085" lat="14.581757">
                <ele>355.340000</ele>
                <time>2016-09-24T07:06:00Z</time>
            </trkpt>
            <trkpt lon="101.454689" lat="14.582529">
                <ele>359.670000</ele>
                <time>2016-09-24T07:06:17Z</time>
            </trkpt>
            <trkpt lon="101.454121" lat="14.587259">
                <ele>346.690000</ele>
                <time>2016-09-24T07:07:46Z</time>
            </trkpt>
            <trkpt lon="101.453964" lat="14.588635">
                <ele>347.650000</ele>
                <time>2016-09-24T07:08:33Z</time>
            </trkpt>
            <trkpt lon="101.454114" lat="14.588727">
                <ele>349.580000</ele>
                <time>2016-09-24T07:09:27Z</time>
            </trkpt>
            <trkpt lon="101.454202" lat="14.588724">
                <ele>348.130000</ele>
                <time>2016-09-24T07:09:39Z</time>
            </trkpt>
            <trkpt lon="101.455050" lat="14.589058">
                <ele>344.770000</ele>
                <time>2016-09-24T07:10:07Z</time>
            </trkpt>
            <trkpt lon="101.455999" lat="14.589432">
                <ele>342.370000</ele>
                <time>2016-09-24T07:10:38Z</time>
            </trkpt>
            <trkpt lon="101.456992" lat="14.589906">
                <ele>343.810000</ele>
                <time>2016-09-24T07:11:14Z</time>
            </trkpt>
            <trkpt lon="101.457664" lat="14.590055">
                <ele>346.690000</ele>
                <time>2016-09-24T07:12:42Z</time>
            </trkpt>
            <trkpt lon="101.456014" lat="14.589403">
                <ele>344.290000</ele>
                <time>2016-09-24T07:14:43Z</time>
            </trkpt>
            <trkpt lon="101.456004" lat="14.589408">
                <ele>343.330000</ele>
                <time>2016-09-24T07:15:15Z</time>
            </trkpt>
            <trkpt lon="101.456005" lat="14.589409">
                <ele>341.890000</ele>
                <time>2016-09-24T07:15:51Z</time>
            </trkpt>
            <trkpt lon="101.456104" lat="14.589542">
                <ele>344.290000</ele>
                <time>2016-09-24T07:17:24Z</time>
            </trkpt>
            <trkpt lon="101.456377" lat="14.589663">
                <ele>343.810000</ele>
                <time>2016-09-24T07:17:38Z</time>
            </trkpt>
            <trkpt lon="101.457887" lat="14.590247">
                <ele>344.770000</ele>
                <time>2016-09-24T07:18:38Z</time>
            </trkpt>
            <trkpt lon="101.460729" lat="14.591213">
                <ele>348.620000</ele>
                <time>2016-09-24T07:20:25Z</time>
            </trkpt>
            <trkpt lon="101.468895" lat="14.594335">
                <ele>347.650000</ele>
                <time>2016-09-24T07:25:04Z</time>
            </trkpt>
            <trkpt lon="101.469941" lat="14.594711">
                <ele>344.770000</ele>
                <time>2016-09-24T07:25:29Z</time>
            </trkpt>
            <trkpt lon="101.472312" lat="14.594694">
                <ele>342.370000</ele>
                <time>2016-09-24T07:26:30Z</time>
            </trkpt>
            <trkpt lon="101.473688" lat="14.594243">
                <ele>345.730000</ele>
                <time>2016-09-24T07:27:16Z</time>
            </trkpt>
            <trkpt lon="101.474141" lat="14.594109">
                <ele>345.730000</ele>
                <time>2016-09-24T07:27:30Z</time>
            </trkpt>
            <trkpt lon="101.474313" lat="14.594143">
                <ele>345.250000</ele>
                <time>2016-09-24T07:27:36Z</time>
            </trkpt>
            <trkpt lon="101.474265" lat="14.594909">
                <ele>346.210000</ele>
                <time>2016-09-24T07:27:58Z</time>
            </trkpt>
            <trkpt lon="101.474093" lat="14.596171">
                <ele>343.330000</ele>
                <time>2016-09-24T07:28:29Z</time>
            </trkpt>
            <trkpt lon="101.473909" lat="14.596449">
                <ele>342.850000</ele>
                <time>2016-09-24T07:28:41Z</time>
            </trkpt>
            <trkpt lon="101.473717" lat="14.596456">
                <ele>341.410000</ele>
                <time>2016-09-24T07:28:52Z</time>
            </trkpt>
            <trkpt lon="101.473900" lat="14.596852">
                <ele>344.770000</ele>
                <time>2016-09-24T07:29:09Z</time>
            </trkpt>
            <trkpt lon="101.474292" lat="14.597227">
                <ele>345.730000</ele>
                <time>2016-09-24T07:29:25Z</time>
            </trkpt>
            <trkpt lon="101.474676" lat="14.597634">
                <ele>345.250000</ele>
                <time>2016-09-24T07:29:40Z</time>
            </trkpt>
            <trkpt lon="101.474741" lat="14.598126">
                <ele>343.810000</ele>
                <time>2016-09-24T07:29:53Z</time>
            </trkpt>
            <trkpt lon="101.474446" lat="14.598389">
                <ele>342.370000</ele>
                <time>2016-09-24T07:30:04Z</time>
            </trkpt>
            <trkpt lon="101.473124" lat="14.598482">
                <ele>340.440000</ele>
                <time>2016-09-24T07:30:35Z</time>
            </trkpt>
            <trkpt lon="101.471646" lat="14.598627">
                <ele>342.370000</ele>
                <time>2016-09-24T07:31:10Z</time>
            </trkpt>
            <trkpt lon="101.471647" lat="14.598926">
                <ele>341.410000</ele>
                <time>2016-09-24T07:31:18Z</time>
            </trkpt>
            <trkpt lon="101.471535" lat="14.598981">
                <ele>341.410000</ele>
                <time>2016-09-24T07:31:22Z</time>
            </trkpt>
            <trkpt lon="101.471298" lat="14.599117">
                <ele>344.290000</ele>
                <time>2016-09-24T07:31:34Z</time>
            </trkpt>
            <trkpt lon="101.471343" lat="14.600046">
                <ele>345.250000</ele>
                <time>2016-09-24T07:31:58Z</time>
            </trkpt>
            <trkpt lon="101.471355" lat="14.600310">
                <ele>345.250000</ele>
                <time>2016-09-24T07:32:04Z</time>
            </trkpt>
            <trkpt lon="101.471196" lat="14.600481">
                <ele>344.290000</ele>
                <time>2016-09-24T07:32:10Z</time>
            </trkpt>
            <trkpt lon="101.469408" lat="14.600557">
                <ele>351.500000</ele>
                <time>2016-09-24T07:33:02Z</time>
            </trkpt>
            <trkpt lon="101.469164" lat="14.600737">
                <ele>351.500000</ele>
                <time>2016-09-24T07:33:12Z</time>
            </trkpt>
            <trkpt lon="101.468218" lat="14.602752">
                <ele>350.540000</ele>
                <time>2016-09-24T07:34:10Z</time>
            </trkpt>
            <trkpt lon="101.469965" lat="14.603929">
                <ele>344.770000</ele>
                <time>2016-09-24T07:34:56Z</time>
            </trkpt>
            <trkpt lon="101.472563" lat="14.605714">
                <ele>339.480000</ele>
                <time>2016-09-24T07:35:49Z</time>
            </trkpt>
            <trkpt lon="101.473732" lat="14.607048">
                <ele>342.370000</ele>
                <time>2016-09-24T07:36:38Z</time>
            </trkpt>
            <trkpt lon="101.475388" lat="14.605557">
                <ele>341.410000</ele>
                <time>2016-09-24T07:37:39Z</time>
            </trkpt>
            <trkpt lon="101.475430" lat="14.605421">
                <ele>343.330000</ele>
                <time>2016-09-24T07:38:07Z</time>
            </trkpt>
            <trkpt lon="101.476017" lat="14.605469">
                <ele>341.410000</ele>
                <time>2016-09-24T07:38:26Z</time>
            </trkpt>
            <trkpt lon="101.476834" lat="14.605834">
                <ele>340.920000</ele>
                <time>2016-09-24T07:38:52Z</time>
            </trkpt>
            <trkpt lon="101.477510" lat="14.605172">
                <ele>342.850000</ele>
                <time>2016-09-24T07:39:19Z</time>
            </trkpt>
            <trkpt lon="101.477851" lat="14.603633">
                <ele>343.810000</ele>
                <time>2016-09-24T07:40:08Z</time>
            </trkpt>
            <trkpt lon="101.477917" lat="14.602777">
                <ele>346.210000</ele>
                <time>2016-09-24T07:40:34Z</time>
            </trkpt>
            <trkpt lon="101.477851" lat="14.602259">
                <ele>344.290000</ele>
                <time>2016-09-24T07:41:09Z</time>
            </trkpt>
            <trkpt lon="101.477737" lat="14.601589">
                <ele>345.250000</ele>
                <time>2016-09-24T07:41:53Z</time>
            </trkpt>
            <trkpt lon="101.478109" lat="14.601597">
                <ele>348.130000</ele>
                <time>2016-09-24T07:42:10Z</time>
            </trkpt>
            <trkpt lon="101.479298" lat="14.601754">
                <ele>348.130000</ele>
                <time>2016-09-24T07:42:54Z</time>
            </trkpt>
            <trkpt lon="101.479581" lat="14.601711">
                <ele>350.540000</ele>
                <time>2016-09-24T07:43:10Z</time>
            </trkpt>
            <trkpt lon="101.479269" lat="14.600312">
                <ele>346.690000</ele>
                <time>2016-09-24T07:43:47Z</time>
            </trkpt>
            <trkpt lon="101.478936" lat="14.598577">
                <ele>346.210000</ele>
                <time>2016-09-24T07:44:22Z</time>
            </trkpt>
            <trkpt lon="101.479398" lat="14.597684">
                <ele>346.210000</ele>
                <time>2016-09-24T07:44:49Z</time>
            </trkpt>
            <trkpt lon="101.479994" lat="14.596693">
                <ele>345.730000</ele>
                <time>2016-09-24T07:47:39Z</time>
            </trkpt>
            <trkpt lon="101.480990" lat="14.596455">
                <ele>352.460000</ele>
                <time>2016-09-24T07:51:53Z</time>
            </trkpt>
            <trkpt lon="101.482131" lat="14.596183">
                <ele>351.500000</ele>
                <time>2016-09-24T07:52:25Z</time>
            </trkpt>
            <trkpt lon="101.487367" lat="14.594903">
                <ele>368.320000</ele>
                <time>2016-09-24T07:55:02Z</time>
            </trkpt>
            <trkpt lon="101.487779" lat="14.595736">
                <ele>368.320000</ele>
                <time>2016-09-24T07:55:34Z</time>
            </trkpt>
            <trkpt lon="101.489605" lat="14.596037">
                <ele>381.780000</ele>
                <time>2016-09-24T07:57:10Z</time>
            </trkpt>
            <trkpt lon="101.490397" lat="14.595916">
                <ele>386.590000</ele>
                <time>2016-09-24T07:57:57Z</time>
            </trkpt>
            <trkpt lon="101.490664" lat="14.595944">
                <ele>388.030000</ele>
                <time>2016-09-24T07:58:13Z</time>
            </trkpt>
            <trkpt lon="101.491538" lat="14.595844">
                <ele>390.430000</ele>
                <time>2016-09-24T07:58:57Z</time>
            </trkpt>
            <trkpt lon="101.492839" lat="14.595104">
                <ele>398.120000</ele>
                <time>2016-09-24T08:00:21Z</time>
            </trkpt>
            <trkpt lon="101.493135" lat="14.595121">
                <ele>397.160000</ele>
                <time>2016-09-24T08:00:37Z</time>
            </trkpt>
            <trkpt lon="101.493376" lat="14.595311">
                <ele>396.200000</ele>
                <time>2016-09-24T08:00:52Z</time>
            </trkpt>
            <trkpt lon="101.493923" lat="14.595687">
                <ele>397.640000</ele>
                <time>2016-09-24T08:01:17Z</time>
            </trkpt>
            <trkpt lon="101.494633" lat="14.595923">
                <ele>399.570000</ele>
                <time>2016-09-24T08:01:47Z</time>
            </trkpt>
            <trkpt lon="101.494994" lat="14.595816">
                <ele>401.010000</ele>
                <time>2016-09-24T08:02:03Z</time>
            </trkpt>
            <trkpt lon="101.495340" lat="14.595326">
                <ele>402.930000</ele>
                <time>2016-09-24T08:02:29Z</time>
            </trkpt>
            <trkpt lon="101.496259" lat="14.594913">
                <ele>407.260000</ele>
                <time>2016-09-24T08:03:14Z</time>
            </trkpt>
            <trkpt lon="101.496739" lat="14.594743">
                <ele>406.770000</ele>
                <time>2016-09-24T08:03:35Z</time>
            </trkpt>
            <trkpt lon="101.496820" lat="14.595625">
                <ele>402.450000</ele>
                <time>2016-09-24T08:03:59Z</time>
            </trkpt>
            <trkpt lon="101.496456" lat="14.596434">
                <ele>401.490000</ele>
                <time>2016-09-24T08:04:25Z</time>
            </trkpt>
            <trkpt lon="101.496127" lat="14.596902">
                <ele>401.010000</ele>
                <time>2016-09-24T08:04:39Z</time>
            </trkpt>
            <trkpt lon="101.496205" lat="14.597530">
                <ele>401.490000</ele>
                <time>2016-09-24T08:05:00Z</time>
            </trkpt>
            <trkpt lon="101.496714" lat="14.597471">
                <ele>404.850000</ele>
                <time>2016-09-24T08:05:22Z</time>
            </trkpt>
            <trkpt lon="101.498623" lat="14.597750">
                <ele>411.580000</ele>
                <time>2016-09-24T08:06:38Z</time>
            </trkpt>
            <trkpt lon="101.500408" lat="14.597543">
                <ele>414.950000</ele>
                <time>2016-09-24T08:07:28Z</time>
            </trkpt>
            <trkpt lon="101.502113" lat="14.597790">
                <ele>417.830000</ele>
                <time>2016-09-24T08:08:13Z</time>
            </trkpt>
            <trkpt lon="101.502126" lat="14.596838">
                <ele>417.830000</ele>
                <time>2016-09-24T08:08:50Z</time>
            </trkpt>
            <trkpt lon="101.502681" lat="14.596459">
                <ele>420.230000</ele>
                <time>2016-09-24T08:09:13Z</time>
            </trkpt>
            <trkpt lon="101.503206" lat="14.595777">
                <ele>419.750000</ele>
                <time>2016-09-24T08:09:42Z</time>
            </trkpt>
            <trkpt lon="101.504398" lat="14.595038">
                <ele>420.230000</ele>
                <time>2016-09-24T08:10:44Z</time>
            </trkpt>
            <trkpt lon="101.504942" lat="14.594648">
                <ele>422.640000</ele>
                <time>2016-09-24T08:11:27Z</time>
            </trkpt>
            <trkpt lon="101.505653" lat="14.594046">
                <ele>422.640000</ele>
                <time>2016-09-24T08:12:12Z</time>
            </trkpt>
            <trkpt lon="101.506236" lat="14.593866">
                <ele>428.890000</ele>
                <time>2016-09-24T08:13:07Z</time>
            </trkpt>
            <trkpt lon="101.507114" lat="14.593513">
                <ele>432.250000</ele>
                <time>2016-09-24T08:14:09Z</time>
            </trkpt>
            <trkpt lon="101.507625" lat="14.592991">
                <ele>441.860000</ele>
                <time>2016-09-24T08:15:22Z</time>
            </trkpt>
            <trkpt lon="101.507920" lat="14.592927">
                <ele>445.230000</ele>
                <time>2016-09-24T08:15:47Z</time>
            </trkpt>
            <trkpt lon="101.508336" lat="14.592688">
                <ele>442.340000</ele>
                <time>2016-09-24T08:16:09Z</time>
            </trkpt>
            <trkpt lon="101.508708" lat="14.592770">
                <ele>435.610000</ele>
                <time>2016-09-24T08:16:22Z</time>
            </trkpt>
            <trkpt lon="101.508985" lat="14.592300">
                <ele>434.650000</ele>
                <time>2016-09-24T08:16:44Z</time>
            </trkpt>
            <trkpt lon="101.509785" lat="14.592379">
                <ele>432.730000</ele>
                <time>2016-09-24T08:17:09Z</time>
            </trkpt>
            <trkpt lon="101.510564" lat="14.592438">
                <ele>431.290000</ele>
                <time>2016-09-24T08:17:31Z</time>
            </trkpt>
            <trkpt lon="101.511619" lat="14.591867">
                <ele>437.540000</ele>
                <time>2016-09-24T08:18:32Z</time>
            </trkpt>
            <trkpt lon="101.511931" lat="14.591967">
                <ele>438.980000</ele>
                <time>2016-09-24T08:18:58Z</time>
            </trkpt>
            <trkpt lon="101.512176" lat="14.591871">
                <ele>440.900000</ele>
                <time>2016-09-24T08:19:31Z</time>
            </trkpt>
            <trkpt lon="101.512211" lat="14.591853">
                <ele>440.900000</ele>
                <time>2016-09-24T08:19:43Z</time>
            </trkpt>
            <trkpt lon="101.512703" lat="14.591859">
                <ele>448.110000</ele>
                <time>2016-09-24T08:20:38Z</time>
            </trkpt>
            <trkpt lon="101.513023" lat="14.591599">
                <ele>451.000000</ele>
                <time>2016-09-24T08:21:11Z</time>
            </trkpt>
            <trkpt lon="101.513644" lat="14.591268">
                <ele>451.480000</ele>
                <time>2016-09-24T08:21:42Z</time>
            </trkpt>
            <trkpt lon="101.513905" lat="14.590956">
                <ele>449.070000</ele>
                <time>2016-09-24T08:22:00Z</time>
            </trkpt>
            <trkpt lon="101.514510" lat="14.590675">
                <ele>445.710000</ele>
                <time>2016-09-24T08:22:26Z</time>
            </trkpt>
            <trkpt lon="101.514737" lat="14.590125">
                <ele>449.070000</ele>
                <time>2016-09-24T08:23:04Z</time>
            </trkpt>
            <trkpt lon="101.515601" lat="14.589456">
                <ele>454.360000</ele>
                <time>2016-09-24T08:24:12Z</time>
            </trkpt>
            <trkpt lon="101.515897" lat="14.589401">
                <ele>453.880000</ele>
                <time>2016-09-24T08:24:27Z</time>
            </trkpt>
            <trkpt lon="101.516202" lat="14.589151">
                <ele>458.210000</ele>
                <time>2016-09-24T08:24:54Z</time>
            </trkpt>
            <trkpt lon="101.516286" lat="14.589058">
                <ele>458.690000</ele>
                <time>2016-09-24T08:25:09Z</time>
            </trkpt>
            <trkpt lon="101.516510" lat="14.588870">
                <ele>460.130000</ele>
                <time>2016-09-24T08:26:35Z</time>
            </trkpt>
            <trkpt lon="101.516526" lat="14.588692">
                <ele>458.690000</ele>
                <time>2016-09-24T08:27:08Z</time>
            </trkpt>
            <trkpt lon="101.517137" lat="14.588742">
                <ele>468.780000</ele>
                <time>2016-09-24T08:28:09Z</time>
            </trkpt>
            <trkpt lon="101.517567" lat="14.588526">
                <ele>484.640000</ele>
                <time>2016-09-24T08:29:09Z</time>
            </trkpt>
            <trkpt lon="101.517810" lat="14.588391">
                <ele>488.970000</ele>
                <time>2016-09-24T08:30:25Z</time>
            </trkpt>
            <trkpt lon="101.518076" lat="14.588819">
                <ele>477.430000</ele>
                <time>2016-09-24T08:31:16Z</time>
            </trkpt>
            <trkpt lon="101.518996" lat="14.589432">
                <ele>463.970000</ele>
                <time>2016-09-24T08:32:02Z</time>
            </trkpt>
            <trkpt lon="101.519355" lat="14.589513">
                <ele>459.650000</ele>
                <time>2016-09-24T08:32:15Z</time>
            </trkpt>
            <trkpt lon="101.520359" lat="14.589383">
                <ele>468.300000</ele>
                <time>2016-09-24T08:33:11Z</time>
            </trkpt>
            <trkpt lon="101.520581" lat="14.589260">
                <ele>472.630000</ele>
                <time>2016-09-24T08:33:41Z</time>
            </trkpt>
            <trkpt lon="101.520680" lat="14.589132">
                <ele>476.470000</ele>
                <time>2016-09-24T08:34:00Z</time>
            </trkpt>
            <trkpt lon="101.520821" lat="14.589099">
                <ele>477.910000</ele>
                <time>2016-09-24T08:34:20Z</time>
            </trkpt>
            <trkpt lon="101.521354" lat="14.589004">
                <ele>479.840000</ele>
                <time>2016-09-24T08:34:59Z</time>
            </trkpt>
            <trkpt lon="101.521545" lat="14.588944">
                <ele>479.350000</ele>
                <time>2016-09-24T08:35:14Z</time>
            </trkpt>
            <trkpt lon="101.522135" lat="14.588864">
                <ele>474.070000</ele>
                <time>2016-09-24T08:35:58Z</time>
            </trkpt>
            <trkpt lon="101.522904" lat="14.589529">
                <ele>464.930000</ele>
                <time>2016-09-24T08:37:07Z</time>
            </trkpt>
            <trkpt lon="101.522800" lat="14.589883">
                <ele>462.050000</ele>
                <time>2016-09-24T08:37:25Z</time>
            </trkpt>
            <trkpt lon="101.522951" lat="14.590150">
                <ele>461.570000</ele>
                <time>2016-09-24T08:37:37Z</time>
            </trkpt>
            <trkpt lon="101.523261" lat="14.590346">
                <ele>463.010000</ele>
                <time>2016-09-24T08:37:50Z</time>
            </trkpt>
            <trkpt lon="101.523870" lat="14.590357">
                <ele>464.450000</ele>
                <time>2016-09-24T08:38:19Z</time>
            </trkpt>
            <trkpt lon="101.524025" lat="14.590409">
                <ele>465.900000</ele>
                <time>2016-09-24T08:38:35Z</time>
            </trkpt>
            <trkpt lon="101.524040" lat="14.591267">
                <ele>469.260000</ele>
                <time>2016-09-24T08:39:36Z</time>
            </trkpt>
            <trkpt lon="101.525523" lat="14.590910">
                <ele>485.600000</ele>
                <time>2016-09-24T08:41:45Z</time>
            </trkpt>
            <trkpt lon="101.525621" lat="14.590919">
                <ele>486.560000</ele>
                <time>2016-09-24T08:42:01Z</time>
            </trkpt>
            <trkpt lon="101.526053" lat="14.590961">
                <ele>476.470000</ele>
                <time>2016-09-24T08:43:09Z</time>
            </trkpt>
            <trkpt lon="101.526281" lat="14.590328">
                <ele>478.390000</ele>
                <time>2016-09-24T08:44:34Z</time>
            </trkpt>
            <trkpt lon="101.526567" lat="14.589795">
                <ele>482.720000</ele>
                <time>2016-09-24T08:45:41Z</time>
            </trkpt>
            <trkpt lon="101.526599" lat="14.589742">
                <ele>482.720000</ele>
                <time>2016-09-24T08:45:45Z</time>
            </trkpt>
            <trkpt lon="101.526835" lat="14.589213">
                <ele>486.080000</ele>
                <time>2016-09-24T08:46:22Z</time>
            </trkpt>
            <trkpt lon="101.527432" lat="14.588879">
                <ele>492.330000</ele>
                <time>2016-09-24T08:47:14Z</time>
            </trkpt>
            <trkpt lon="101.527596" lat="14.588572">
                <ele>499.540000</ele>
                <time>2016-09-24T08:47:40Z</time>
            </trkpt>
            <trkpt lon="101.527857" lat="14.587997">
                <ele>505.310000</ele>
                <time>2016-09-24T08:48:25Z</time>
            </trkpt>
            <trkpt lon="101.527867" lat="14.587971">
                <ele>505.310000</ele>
                <time>2016-09-24T08:48:27Z</time>
            </trkpt>
            <trkpt lon="101.526841" lat="14.585758">
                <ele>511.080000</ele>
                <time>2016-09-24T08:51:04Z</time>
            </trkpt>
            <trkpt lon="101.526763" lat="14.585070">
                <ele>517.810000</ele>
                <time>2016-09-24T08:51:57Z</time>
            </trkpt>
            <trkpt lon="101.527304" lat="14.584299">
                <ele>534.630000</ele>
                <time>2016-09-24T08:53:58Z</time>
            </trkpt>
            <trkpt lon="101.527351" lat="14.583610">
                <ele>544.720000</ele>
                <time>2016-09-24T08:55:17Z</time>
            </trkpt>
            <trkpt lon="101.527445" lat="14.583318">
                <ele>545.690000</ele>
                <time>2016-09-24T08:55:48Z</time>
            </trkpt>
            <trkpt lon="101.527536" lat="14.583032">
                <ele>552.410000</ele>
                <time>2016-09-24T08:56:20Z</time>
            </trkpt>
            <trkpt lon="101.527646" lat="14.582496">
                <ele>556.740000</ele>
                <time>2016-09-24T08:57:41Z</time>
            </trkpt>
            <trkpt lon="101.526610" lat="14.580047">
                <ele>532.710000</ele>
                <time>2016-09-24T09:00:37Z</time>
            </trkpt>
            <trkpt lon="101.526234" lat="14.579668">
                <ele>528.380000</ele>
                <time>2016-09-24T09:01:01Z</time>
            </trkpt>
            <trkpt lon="101.526074" lat="14.578789">
                <ele>521.650000</ele>
                <time>2016-09-24T09:01:23Z</time>
            </trkpt>
            <trkpt lon="101.526250" lat="14.576436">
                <ele>510.120000</ele>
                <time>2016-09-24T09:02:28Z</time>
            </trkpt>
            <trkpt lon="101.526427" lat="14.575722">
                <ele>507.710000</ele>
                <time>2016-09-24T09:02:54Z</time>
            </trkpt>
            <trkpt lon="101.526527" lat="14.575374">
                <ele>506.750000</ele>
                <time>2016-09-24T09:03:22Z</time>
            </trkpt>
            <trkpt lon="101.527323" lat="14.573720">
                <ele>501.950000</ele>
                <time>2016-09-24T09:04:47Z</time>
            </trkpt>
            <trkpt lon="101.527602" lat="14.573695">
                <ele>501.460000</ele>
                <time>2016-09-24T09:05:18Z</time>
            </trkpt>
            <trkpt lon="101.527765" lat="14.573938">
                <ele>503.870000</ele>
                <time>2016-09-24T09:05:50Z</time>
            </trkpt>
            <trkpt lon="101.528114" lat="14.574190">
                <ele>508.670000</ele>
                <time>2016-09-24T09:06:40Z</time>
            </trkpt>
            <trkpt lon="101.528830" lat="14.574261">
                <ele>516.370000</ele>
                <time>2016-09-24T09:07:57Z</time>
            </trkpt>
            <trkpt lon="101.528905" lat="14.574269">
                <ele>516.850000</ele>
                <time>2016-09-24T09:08:17Z</time>
            </trkpt>
            <trkpt lon="101.528955" lat="14.574305">
                <ele>518.770000</ele>
                <time>2016-09-24T09:08:50Z</time>
            </trkpt>
            <trkpt lon="101.528967" lat="14.574338">
                <ele>519.730000</ele>
                <time>2016-09-24T09:10:09Z</time>
            </trkpt>
            <trkpt lon="101.530092" lat="14.574365">
                <ele>519.730000</ele>
                <time>2016-09-24T09:12:50Z</time>
            </trkpt>
            <trkpt lon="101.530569" lat="14.574725">
                <ele>524.540000</ele>
                <time>2016-09-24T09:13:21Z</time>
            </trkpt>
            <trkpt lon="101.533046" lat="14.574694">
                <ele>514.920000</ele>
                <time>2016-09-24T09:14:22Z</time>
            </trkpt>
            <trkpt lon="101.533844" lat="14.574688">
                <ele>508.670000</ele>
                <time>2016-09-24T09:14:45Z</time>
            </trkpt>
            <trkpt lon="101.534490" lat="14.574459">
                <ele>503.390000</ele>
                <time>2016-09-24T09:15:09Z</time>
            </trkpt>
            <trkpt lon="101.534300" lat="14.572048">
                <ele>490.410000</ele>
                <time>2016-09-24T09:16:14Z</time>
            </trkpt>
            <trkpt lon="101.534394" lat="14.572015">
                <ele>491.850000</ele>
                <time>2016-09-24T09:16:35Z</time>
            </trkpt>
            <trkpt lon="101.534786" lat="14.571977">
                <ele>489.930000</ele>
                <time>2016-09-24T09:16:56Z</time>
            </trkpt>
            <trkpt lon="101.534303" lat="14.571995">
                <ele>490.410000</ele>
                <time>2016-09-24T09:17:18Z</time>
            </trkpt>
            <trkpt lon="101.533776" lat="14.570485">
                <ele>479.840000</ele>
                <time>2016-09-24T09:18:08Z</time>
            </trkpt>
            <trkpt lon="101.533037" lat="14.569767">
                <ele>476.950000</ele>
                <time>2016-09-24T09:18:36Z</time>
            </trkpt>
            <trkpt lon="101.532121" lat="14.567694">
                <ele>474.070000</ele>
                <time>2016-09-24T09:19:35Z</time>
            </trkpt>
            <trkpt lon="101.531912" lat="14.566275">
                <ele>472.630000</ele>
                <time>2016-09-24T09:20:08Z</time>
            </trkpt>
            <trkpt lon="101.531501" lat="14.565332">
                <ele>473.590000</ele>
                <time>2016-09-24T09:20:37Z</time>
            </trkpt>
            <trkpt lon="101.531007" lat="14.564768">
                <ele>472.630000</ele>
                <time>2016-09-24T09:20:56Z</time>
            </trkpt>
            <trkpt lon="101.530196" lat="14.564909">
                <ele>473.590000</ele>
                <time>2016-09-24T09:21:17Z</time>
            </trkpt>
            <trkpt lon="101.529468" lat="14.565210">
                <ele>474.070000</ele>
                <time>2016-09-24T09:21:36Z</time>
            </trkpt>
            <trkpt lon="101.529200" lat="14.565339">
                <ele>473.110000</ele>
                <time>2016-09-24T09:21:43Z</time>
            </trkpt>
            <trkpt lon="101.528996" lat="14.565411">
                <ele>471.660000</ele>
                <time>2016-09-24T09:21:48Z</time>
            </trkpt>
            <trkpt lon="101.528791" lat="14.565478">
                <ele>471.180000</ele>
                <time>2016-09-24T09:21:53Z</time>
            </trkpt>
            <trkpt lon="101.528678" lat="14.565558">
                <ele>470.700000</ele>
                <time>2016-09-24T09:21:56Z</time>
            </trkpt>
            <trkpt lon="101.528064" lat="14.566077">
                <ele>467.820000</ele>
                <time>2016-09-24T09:22:15Z</time>
            </trkpt>
            <trkpt lon="101.527161" lat="14.566371">
                <ele>464.930000</ele>
                <time>2016-09-24T09:22:40Z</time>
            </trkpt>
            <trkpt lon="101.526723" lat="14.566449">
                <ele>463.010000</ele>
                <time>2016-09-24T09:22:52Z</time>
            </trkpt>
            <trkpt lon="101.523374" lat="14.566580">
                <ele>457.240000</ele>
                <time>2016-09-24T09:24:23Z</time>
            </trkpt>
            <trkpt lon="101.521782" lat="14.566778">
                <ele>452.920000</ele>
                <time>2016-09-24T09:24:59Z</time>
            </trkpt>
            <trkpt lon="101.520264" lat="14.566310">
                <ele>451.960000</ele>
                <time>2016-09-24T09:25:37Z</time>
            </trkpt>
            <trkpt lon="101.519967" lat="14.566140">
                <ele>452.440000</ele>
                <time>2016-09-24T09:25:01Z</time>
            </trkpt>
            <trkpt lon="101.519720" lat="14.566275">
                <ele>450.520000</ele>
                <time>2016-09-24T09:25:07Z</time>
            </trkpt>
            <trkpt lon="101.519307" lat="14.566455">
                <ele>448.590000</ele>
                <time>2016-09-24T09:25:15Z</time>
            </trkpt>
            <trkpt lon="101.517731" lat="14.566693">
                <ele>448.590000</ele>
                <time>2016-09-24T09:25:47Z</time>
            </trkpt>
            <trkpt lon="101.515908" lat="14.567223">
                <ele>457.720000</ele>
                <time>2016-09-24T09:27:18Z</time>
            </trkpt>
            <trkpt lon="101.513221" lat="14.568841">
                <ele>460.130000</ele>
                <time>2016-09-24T09:29:04Z</time>
            </trkpt>
            <trkpt lon="101.511932" lat="14.569818">
                <ele>466.860000</ele>
                <time>2016-09-24T09:30:16Z</time>
            </trkpt>
            <trkpt lon="101.510760" lat="14.570054">
                <ele>469.260000</ele>
                <time>2016-09-24T09:31:09Z</time>
            </trkpt>
            <trkpt lon="101.510431" lat="14.569375">
                <ele>475.030000</ele>
                <time>2016-09-24T09:32:04Z</time>
            </trkpt>
            <trkpt lon="101.510528" lat="14.569321">
                <ele>474.550000</ele>
                <time>2016-09-24T09:32:21Z</time>
            </trkpt>
            <trkpt lon="101.510406" lat="14.569316">
                <ele>475.510000</ele>
                <time>2016-09-24T09:32:37Z</time>
            </trkpt>
            <trkpt lon="101.509158" lat="14.569610">
                <ele>494.740000</ele>
                <time>2016-09-24T09:35:34Z</time>
            </trkpt>
            <trkpt lon="101.508554" lat="14.569441">
                <ele>500.980000</ele>
                <time>2016-09-24T09:36:27Z</time>
            </trkpt>
            <trkpt lon="101.507828" lat="14.569401">
                <ele>505.790000</ele>
                <time>2016-09-24T09:37:22Z</time>
            </trkpt>
            <trkpt lon="101.507582" lat="14.569257">
                <ele>505.310000</ele>
                <time>2016-09-24T09:37:39Z</time>
            </trkpt>
            <trkpt lon="101.507193" lat="14.568786">
                <ele>500.020000</ele>
                <time>2016-09-24T09:38:10Z</time>
            </trkpt>
            <trkpt lon="101.506908" lat="14.568668">
                <ele>496.660000</ele>
                <time>2016-09-24T09:38:20Z</time>
            </trkpt>
            <trkpt lon="101.506530" lat="14.568115">
                <ele>491.370000</ele>
                <time>2016-09-24T09:38:44Z</time>
            </trkpt>
            <trkpt lon="101.506242" lat="14.568053">
                <ele>488.970000</ele>
                <time>2016-09-24T09:38:56Z</time>
            </trkpt>
            <trkpt lon="101.505846" lat="14.568247">
                <ele>484.160000</ele>
                <time>2016-09-24T09:39:10Z</time>
            </trkpt>
            <trkpt lon="101.505275" lat="14.568084">
                <ele>478.390000</ele>
                <time>2016-09-24T09:39:37Z</time>
            </trkpt>
            <trkpt lon="101.505011" lat="14.567854">
                <ele>477.430000</ele>
                <time>2016-09-24T09:39:51Z</time>
            </trkpt>
            <trkpt lon="101.504768" lat="14.567695">
                <ele>474.550000</ele>
                <time>2016-09-24T09:40:06Z</time>
            </trkpt>
            <trkpt lon="101.504415" lat="14.568126">
                <ele>470.220000</ele>
                <time>2016-09-24T09:40:32Z</time>
            </trkpt>
            <trkpt lon="101.504196" lat="14.568416">
                <ele>466.380000</ele>
                <time>2016-09-24T09:40:43Z</time>
            </trkpt>
            <trkpt lon="101.503536" lat="14.568528">
                <ele>456.760000</ele>
                <time>2016-09-24T09:41:17Z</time>
            </trkpt>
            <trkpt lon="101.503031" lat="14.568900">
                <ele>448.110000</ele>
                <time>2016-09-24T09:41:50Z</time>
            </trkpt>
            <trkpt lon="101.501501" lat="14.569026">
                <ele>439.940000</ele>
                <time>2016-09-24T09:42:53Z</time>
            </trkpt>
            <trkpt lon="101.500935" lat="14.569181">
                <ele>435.130000</ele>
                <time>2016-09-24T09:43:10Z</time>
            </trkpt>
            <trkpt lon="101.500058" lat="14.569289">
                <ele>430.330000</ele>
                <time>2016-09-24T09:43:50Z</time>
            </trkpt>
            <trkpt lon="101.499905" lat="14.569694">
                <ele>429.850000</ele>
                <time>2016-09-24T09:44:09Z</time>
            </trkpt>
            <trkpt lon="101.499509" lat="14.569683">
                <ele>428.400000</ele>
                <time>2016-09-24T09:44:21Z</time>
            </trkpt>
            <trkpt lon="101.498500" lat="14.569665">
                <ele>426.480000</ele>
                <time>2016-09-24T09:44:48Z</time>
            </trkpt>
            <trkpt lon="101.498136" lat="14.569491">
                <ele>422.640000</ele>
                <time>2016-09-24T09:45:02Z</time>
            </trkpt>
            <trkpt lon="101.496282" lat="14.569118">
                <ele>408.220000</ele>
                <time>2016-09-24T09:45:56Z</time>
            </trkpt>
            <trkpt lon="101.495526" lat="14.569472">
                <ele>402.930000</ele>
                <time>2016-09-24T09:46:22Z</time>
            </trkpt>
            <trkpt lon="101.494902" lat="14.570185">
                <ele>398.600000</ele>
                <time>2016-09-24T09:46:50Z</time>
            </trkpt>
            <trkpt lon="101.494626" lat="14.570465">
                <ele>395.240000</ele>
                <time>2016-09-24T09:47:02Z</time>
            </trkpt>
            <trkpt lon="101.494190" lat="14.570521">
                <ele>392.360000</ele>
                <time>2016-09-24T09:47:22Z</time>
            </trkpt>
            <trkpt lon="101.492616" lat="14.571185">
                <ele>385.630000</ele>
                <time>2016-09-24T09:48:09Z</time>
            </trkpt>
            <trkpt lon="101.492576" lat="14.571717">
                <ele>380.820000</ele>
                <time>2016-09-24T09:48:23Z</time>
            </trkpt>
            <trkpt lon="101.491966" lat="14.571904">
                <ele>378.420000</ele>
                <time>2016-09-24T09:48:51Z</time>
            </trkpt>
            <trkpt lon="101.491476" lat="14.571756">
                <ele>377.450000</ele>
                <time>2016-09-24T09:49:10Z</time>
            </trkpt>
            <trkpt lon="101.491026" lat="14.571341">
                <ele>373.610000</ele>
                <time>2016-09-24T09:49:29Z</time>
            </trkpt>
            <trkpt lon="101.490152" lat="14.570927">
                <ele>371.210000</ele>
                <time>2016-09-24T09:49:59Z</time>
            </trkpt>
            <trkpt lon="101.486439" lat="14.569924">
                <ele>363.040000</ele>
                <time>2016-09-24T09:51:28Z</time>
            </trkpt>
            <trkpt lon="101.485443" lat="14.569327">
                <ele>361.110000</ele>
                <time>2016-09-24T09:51:53Z</time>
            </trkpt>
            <trkpt lon="101.484581" lat="14.569507">
                <ele>361.110000</ele>
                <time>2016-09-24T09:52:13Z</time>
            </trkpt>
            <trkpt lon="101.484202" lat="14.569883">
                <ele>358.710000</ele>
                <time>2016-09-24T09:52:23Z</time>
            </trkpt>
            <trkpt lon="101.483499" lat="14.570052">
                <ele>358.710000</ele>
                <time>2016-09-24T09:52:43Z</time>
            </trkpt>
            <trkpt lon="101.483160" lat="14.569186">
                <ele>361.110000</ele>
                <time>2016-09-24T09:53:14Z</time>
            </trkpt>
            <trkpt lon="101.482958" lat="14.568969">
                <ele>359.190000</ele>
                <time>2016-09-24T09:53:20Z</time>
            </trkpt>
            <trkpt lon="101.482264" lat="14.568799">
                <ele>359.190000</ele>
                <time>2016-09-24T09:53:34Z</time>
            </trkpt>
            <trkpt lon="101.481314" lat="14.568147">
                <ele>360.150000</ele>
                <time>2016-09-24T09:54:05Z</time>
            </trkpt>
            <trkpt lon="101.481179" lat="14.567760">
                <ele>361.110000</ele>
                <time>2016-09-24T09:54:21Z</time>
            </trkpt>
            <trkpt lon="101.481261" lat="14.567286">
                <ele>366.400000</ele>
                <time>2016-09-24T09:54:54Z</time>
            </trkpt>
            <trkpt lon="101.481368" lat="14.566870">
                <ele>371.690000</ele>
                <time>2016-09-24T09:55:27Z</time>
            </trkpt>
            <trkpt lon="101.481376" lat="14.566741">
                <ele>372.170000</ele>
                <time>2016-09-24T09:55:37Z</time>
            </trkpt>
            <trkpt lon="101.481537" lat="14.566265">
                <ele>369.280000</ele>
                <time>2016-09-24T09:56:00Z</time>
            </trkpt>
            <trkpt lon="101.481798" lat="14.566033">
                <ele>371.210000</ele>
                <time>2016-09-24T09:56:21Z</time>
            </trkpt>
            <trkpt lon="101.481898" lat="14.565753">
                <ele>371.690000</ele>
                <time>2016-09-24T09:56:38Z</time>
            </trkpt>
            <trkpt lon="101.481921" lat="14.565201">
                <ele>366.400000</ele>
                <time>2016-09-24T09:56:57Z</time>
            </trkpt>
            <trkpt lon="101.481852" lat="14.564620">
                <ele>364.960000</ele>
                <time>2016-09-24T09:57:15Z</time>
            </trkpt>
            <trkpt lon="101.482116" lat="14.564499">
                <ele>366.880000</ele>
                <time>2016-09-24T09:57:36Z</time>
            </trkpt>
            <trkpt lon="101.482124" lat="14.564274">
                <ele>367.840000</ele>
                <time>2016-09-24T09:57:47Z</time>
            </trkpt>
            <trkpt lon="101.482274" lat="14.563970">
                <ele>369.280000</ele>
                <time>2016-09-24T09:58:04Z</time>
            </trkpt>
            <trkpt lon="101.482439" lat="14.562834">
                <ele>374.570000</ele>
                <time>2016-09-24T09:59:10Z</time>
            </trkpt>
            <trkpt lon="101.482298" lat="14.562653">
                <ele>376.490000</ele>
                <time>2016-09-24T09:59:26Z</time>
            </trkpt>
            <trkpt lon="101.481964" lat="14.562598">
                <ele>376.490000</ele>
                <time>2016-09-24T09:59:41Z</time>
            </trkpt>
            <trkpt lon="101.480755" lat="14.562783">
                <ele>378.420000</ele>
                <time>2016-09-24T10:00:29Z</time>
            </trkpt>
            <trkpt lon="101.480534" lat="14.562929">
                <ele>381.300000</ele>
                <time>2016-09-24T10:00:46Z</time>
            </trkpt>
            <trkpt lon="101.480505" lat="14.563089">
                <ele>381.300000</ele>
                <time>2016-09-24T10:00:59Z</time>
            </trkpt>
            <trkpt lon="101.480633" lat="14.562816">
                <ele>379.380000</ele>
                <time>2016-09-24T10:01:24Z</time>
            </trkpt>
            <trkpt lon="101.480736" lat="14.563033">
                <ele>376.490000</ele>
                <time>2016-09-24T10:01:35Z</time>
            </trkpt>
            <trkpt lon="101.480145" lat="14.563612">
                <ele>371.210000</ele>
                <time>2016-09-24T10:01:55Z</time>
            </trkpt>
            <trkpt lon="101.479683" lat="14.563544">
                <ele>372.170000</ele>
                <time>2016-09-24T10:02:15Z</time>
            </trkpt>
            <trkpt lon="101.479377" lat="14.563307">
                <ele>371.210000</ele>
                <time>2016-09-24T10:02:26Z</time>
            </trkpt>
            <trkpt lon="101.478937" lat="14.562867">
                <ele>372.170000</ele>
                <time>2016-09-24T10:02:42Z</time>
            </trkpt>
            <trkpt lon="101.478754" lat="14.562437">
                <ele>373.130000</ele>
                <time>2016-09-24T10:02:58Z</time>
            </trkpt>
            <trkpt lon="101.478867" lat="14.561828">
                <ele>378.420000</ele>
                <time>2016-09-24T10:03:32Z</time>
            </trkpt>
            <trkpt lon="101.478928" lat="14.561490">
                <ele>377.940000</ele>
                <time>2016-09-24T10:03:48Z</time>
            </trkpt>
            <trkpt lon="101.479063" lat="14.560818">
                <ele>369.280000</ele>
                <time>2016-09-24T10:04:08Z</time>
            </trkpt>
            <trkpt lon="101.479635" lat="14.560177">
                <ele>364.960000</ele>
                <time>2016-09-24T10:04:26Z</time>
            </trkpt>
            <trkpt lon="101.480250" lat="14.560403">
                <ele>365.440000</ele>
                <time>2016-09-24T10:04:45Z</time>
            </trkpt>
            <trkpt lon="101.481189" lat="14.559955">
                <ele>367.840000</ele>
                <time>2016-09-24T10:05:19Z</time>
            </trkpt>
            <trkpt lon="101.481366" lat="14.559734">
                <ele>366.880000</ele>
                <time>2016-09-24T10:05:26Z</time>
            </trkpt>
            <trkpt lon="101.481592" lat="14.558886">
                <ele>363.520000</ele>
                <time>2016-09-24T10:05:40Z</time>
            </trkpt>
            <trkpt lon="101.481364" lat="14.556497">
                <ele>365.920000</ele>
                <time>2016-09-24T10:06:37Z</time>
            </trkpt>
            <trkpt lon="101.481464" lat="14.555760">
                <ele>366.400000</ele>
                <time>2016-09-24T10:06:57Z</time>
            </trkpt>
            <trkpt lon="101.481764" lat="14.555118">
                <ele>367.840000</ele>
                <time>2016-09-24T10:07:18Z</time>
            </trkpt>
            <trkpt lon="101.481746" lat="14.555061">
                <ele>367.840000</ele>
                <time>2016-09-24T10:07:21Z</time>
            </trkpt>
            <trkpt lon="101.477753" lat="14.555142">
                <ele>364.480000</ele>
                <time>2016-09-24T10:08:43Z</time>
            </trkpt>
            <trkpt lon="101.476220" lat="14.554701">
                <ele>363.520000</ele>
                <time>2016-09-24T10:09:12Z</time>
            </trkpt>
            <trkpt lon="101.476164" lat="14.554705">
                <ele>363.040000</ele>
                <time>2016-09-24T10:09:13Z</time>
            </trkpt>
            <trkpt lon="101.475888" lat="14.554871">
                <ele>363.040000</ele>
                <time>2016-09-24T10:09:19Z</time>
            </trkpt>
            <trkpt lon="101.475619" lat="14.555255">
                <ele>361.590000</ele>
                <time>2016-09-24T10:09:27Z</time>
            </trkpt>
            <trkpt lon="101.475511" lat="14.555327">
                <ele>360.630000</ele>
                <time>2016-09-24T10:09:29Z</time>
            </trkpt>
            <trkpt lon="101.474372" lat="14.555704">
                <ele>360.150000</ele>
                <time>2016-09-24T10:09:48Z</time>
            </trkpt>
            <trkpt lon="101.474318" lat="14.555737">
                <ele>360.630000</ele>
                <time>2016-09-24T10:09:51Z</time>
            </trkpt>
            <trkpt lon="101.474414" lat="14.555706">
                <ele>359.670000</ele>
                <time>2016-09-24T10:09:57Z</time>
            </trkpt>
            <trkpt lon="101.474271" lat="14.555125">
                <ele>360.630000</ele>
                <time>2016-09-24T10:10:18Z</time>
            </trkpt>
            <trkpt lon="101.474053" lat="14.554590">
                <ele>360.150000</ele>
                <time>2016-09-24T10:10:36Z</time>
            </trkpt>
            <trkpt lon="101.473972" lat="14.554705">
                <ele>360.630000</ele>
                <time>2016-09-24T10:10:48Z</time>
            </trkpt>
            <trkpt lon="101.473960" lat="14.555083">
                <ele>360.630000</ele>
                <time>2016-09-24T10:16:02Z</time>
            </trkpt>
        </trkseg>
    </trk>
</gpx>